sensor_id;sensor_type;location;lat;lon;timestamp;pressure;altitude;pressure_sealevel;temperature
76381;BMP280;65202;52.520;10.528;2022-12-07T00:01:45;100879.06;;;3.15
76381;BMP280;65202;52.520;10.528;2022-12-07T00:04:15;100879.28;;;3.18
76381;BMP280;65202;52.520;10.528;2022-12-07T00:06:46;100874.50;;;3.10
76381;BMP280;65202;52.520;10.528;2022-12-07T00:09:17;100880.91;;;3.18
76381;BMP280;65202;52.520;10.528;2022-12-07T00:11:48;100877.03;;;3.21
76381;BMP280;65202;52.520;10.528;2022-12-07T00:14:18;100873.72;;;3.21
76381;BMP280;65202;52.520;10.528;2022-12-07T00:16:49;100880.72;;;3.26
76381;BMP280;65202;52.520;10.528;2022-12-07T00:19:18;100873.81;;;3.22
76381;BMP280;65202;52.520;10.528;2022-12-07T00:21:45;100869.53;;;3.31
76381;BMP280;65202;52.520;10.528;2022-12-07T00:24:12;100867.38;;;3.24
76381;BMP280;65202;52.520;10.528;2022-12-07T00:26:41;100860.41;;;3.30
76381;BMP280;65202;52.520;10.528;2022-12-07T00:29:16;100859.13;;;3.35
76381;BMP280;65202;52.520;10.528;2022-12-07T00:31:45;100858.44;;;3.26
76381;BMP280;65202;52.520;10.528;2022-12-07T00:34:18;100856.44;;;3.32
76381;BMP280;65202;52.520;10.528;2022-12-07T00:36:48;100852.84;;;3.29
76381;BMP280;65202;52.520;10.528;2022-12-07T00:39:16;100856.44;;;3.32
76381;BMP280;65202;52.520;10.528;2022-12-07T00:41:43;100853.94;;;3.32
76381;BMP280;65202;52.520;10.528;2022-12-07T00:44:11;100848.81;;;3.41
76381;BMP280;65202;52.520;10.528;2022-12-07T00:46:38;100848.91;;;3.42
76381;BMP280;65202;52.520;10.528;2022-12-07T00:49:06;100845.72;;;3.43
76381;BMP280;65202;52.520;10.528;2022-12-07T00:51:33;100833.53;;;3.46
76381;BMP280;65202;52.520;10.528;2022-12-07T00:54:00;100833.78;;;3.49
76381;BMP280;65202;52.520;10.528;2022-12-07T00:56:28;100832.25;;;3.51
76381;BMP280;65202;52.520;10.528;2022-12-07T00:58:57;100822.59;;;3.54
76381;BMP280;65202;52.520;10.528;2022-12-07T01:01:32;100826.03;;;3.56
76381;BMP280;65202;52.520;10.528;2022-12-07T01:04:02;100814.63;;;3.58
76381;BMP280;65202;52.520;10.528;2022-12-07T01:06:30;100815.09;;;3.64
76381;BMP280;65202;52.520;10.528;2022-12-07T01:08:58;100805.81;;;3.62
76381;BMP280;65202;52.520;10.528;2022-12-07T01:11:28;100805.59;;;3.59
76381;BMP280;65202;52.520;10.528;2022-12-07T01:13:57;100808.41;;;3.63
76381;BMP280;65202;52.520;10.528;2022-12-07T01:16:28;100810.13;;;3.64
76381;BMP280;65202;52.520;10.528;2022-12-07T01:18:58;100806.13;;;3.66
76381;BMP280;65202;52.520;10.528;2022-12-07T01:21:32;100793.13;;;3.69
76381;BMP280;65202;52.520;10.528;2022-12-07T01:24:04;100802.72;;;3.64
76381;BMP280;65202;52.520;10.528;2022-12-07T01:26:34;100803.66;;;3.66
76381;BMP280;65202;52.520;10.528;2022-12-07T01:29:01;100803.34;;;3.62
76381;BMP280;65202;52.520;10.528;2022-12-07T01:31:29;100802.81;;;3.66
76381;BMP280;65202;52.520;10.528;2022-12-07T01:33:58;100798.69;;;3.66
76381;BMP280;65202;52.520;10.528;2022-12-07T01:36:32;100797.22;;;3.68
76381;BMP280;65202;52.520;10.528;2022-12-07T01:39:03;100803.13;;;3.70
76381;BMP280;65202;52.520;10.528;2022-12-07T01:41:37;100788.25;;;3.70
76381;BMP280;65202;52.520;10.528;2022-12-07T01:44:17;100792.47;;;3.71
76381;BMP280;65202;52.520;10.528;2022-12-07T01:46:56;100785.88;;;3.72
76381;BMP280;65202;52.520;10.528;2022-12-07T01:49:35;100785.47;;;3.77
76381;BMP280;65202;52.520;10.528;2022-12-07T01:52:30;100785.69;;;3.80
76381;BMP280;65202;52.520;10.528;2022-12-07T01:55:06;100776.53;;;3.79
76381;BMP280;65202;52.520;10.528;2022-12-07T01:57:39;100769.09;;;3.79
76381;BMP280;65202;52.520;10.528;2022-12-07T02:00:12;100773.31;;;3.80
76381;BMP280;65202;52.520;10.528;2022-12-07T02:02:47;100773.53;;;3.83
76381;BMP280;65202;52.520;10.528;2022-12-07T02:05:18;100771.81;;;3.82
76381;BMP280;65202;52.520;10.528;2022-12-07T02:07:47;100769.63;;;3.86
76381;BMP280;65202;52.520;10.528;2022-12-07T02:10:22;100764.81;;;3.88
76381;BMP280;65202;52.520;10.528;2022-12-07T02:13:39;100762.44;;;3.89
76381;BMP280;65202;52.520;10.528;2022-12-07T02:16:09;100754.25;;;3.90
76381;BMP280;65202;52.520;10.528;2022-12-07T02:28:31;100748.13;;;3.97
76381;BMP280;65202;52.520;10.528;2022-12-07T02:31:06;100739.06;;;3.97
76381;BMP280;65202;52.520;10.528;2022-12-07T02:33:48;100743.34;;;4.00
76381;BMP280;65202;52.520;10.528;2022-12-07T02:36:27;100745.28;;;4.04
76381;BMP280;65202;52.520;10.528;2022-12-07T02:39:16;100749.59;;;4.06
76381;BMP280;65202;52.520;10.528;2022-12-07T02:41:58;100739.69;;;4.06
76381;BMP280;65202;52.520;10.528;2022-12-07T02:44:31;100733.22;;;4.08
76381;BMP280;65202;52.520;10.528;2022-12-07T02:47:05;100733.53;;;4.13
76381;BMP280;65202;52.520;10.528;2022-12-07T02:49:38;100736.78;;;4.12
76381;BMP280;65202;52.520;10.528;2022-12-07T02:52:06;100735.34;;;4.15
76381;BMP280;65202;52.520;10.528;2022-12-07T02:54:34;100733.00;;;4.17
76381;BMP280;65202;52.520;10.528;2022-12-07T03:02:49;100721.78;;;4.22
76381;BMP280;65202;52.520;10.528;2022-12-07T03:08:37;100724.56;;;4.26
76381;BMP280;65202;52.520;10.528;2022-12-07T03:11:48;100718.19;;;4.30
76381;BMP280;65202;52.520;10.528;2022-12-07T03:14:30;100713.16;;;4.28
76381;BMP280;65202;52.520;10.528;2022-12-07T03:17:16;100716.66;;;4.32
76381;BMP280;65202;52.520;10.528;2022-12-07T03:19:48;100714.31;;;4.33
76381;BMP280;65202;52.520;10.528;2022-12-07T03:22:21;100712.69;;;4.34
76381;BMP280;65202;52.520;10.528;2022-12-07T03:24:54;100720.78;;;4.31
76381;BMP280;65202;52.520;10.528;2022-12-07T03:27:28;100715.91;;;4.33
76381;BMP280;65202;52.520;10.528;2022-12-07T03:30:13;100703.63;;;4.34
76381;BMP280;65202;52.520;10.528;2022-12-07T03:32:53;100696.31;;;4.36
76381;BMP280;65202;52.520;10.528;2022-12-07T03:35:32;100707.72;;;4.34
76381;BMP280;65202;52.520;10.528;2022-12-07T03:40:51;100704.28;;;4.32
76381;BMP280;65202;52.520;10.528;2022-12-07T03:43:24;100701.06;;;4.33
76381;BMP280;65202;52.520;10.528;2022-12-07T03:46:02;100699.31;;;4.32
76381;BMP280;65202;52.520;10.528;2022-12-07T03:48:46;100695.34;;;4.34
76381;BMP280;65202;52.520;10.528;2022-12-07T03:51:42;100707.63;;;4.32
76381;BMP280;65202;52.520;10.528;2022-12-07T03:54:30;100709.22;;;4.32
76381;BMP280;65202;52.520;10.528;2022-12-07T03:57:05;100712.16;;;4.26
76381;BMP280;65202;52.520;10.528;2022-12-07T03:59:35;100713.25;;;4.30
76381;BMP280;65202;52.520;10.528;2022-12-07T04:02:06;100715.31;;;4.24
76381;BMP280;65202;52.520;10.528;2022-12-07T04:04:35;100713.16;;;4.28
76381;BMP280;65202;52.520;10.528;2022-12-07T04:07:02;100706.25;;;4.24
76381;BMP280;65202;52.520;10.528;2022-12-07T04:09:29;100706.94;;;4.22
76381;BMP280;65202;52.520;10.528;2022-12-07T04:11:56;100711.09;;;4.23
76381;BMP280;65202;52.520;10.528;2022-12-07T04:14:24;100715.19;;;4.22
76381;BMP280;65202;52.520;10.528;2022-12-07T04:16:53;100710.34;;;4.24
76381;BMP280;65202;52.520;10.528;2022-12-07T04:19:28;100711.88;;;4.22
76381;BMP280;65202;52.520;10.528;2022-12-07T04:21:58;100713.19;;;4.17
76381;BMP280;65202;52.520;10.528;2022-12-07T04:24:26;100710.72;;;4.17
76381;BMP280;65202;52.520;10.528;2022-12-07T04:26:54;100705.09;;;4.19
76381;BMP280;65202;52.520;10.528;2022-12-07T04:29:22;100708.09;;;4.15
76381;BMP280;65202;52.520;10.528;2022-12-07T04:31:50;100720.47;;;4.15
76381;BMP280;65202;52.520;10.528;2022-12-07T04:34:18;100714.88;;;4.18
76381;BMP280;65202;52.520;10.528;2022-12-07T04:36:46;100713.19;;;4.17
76381;BMP280;65202;52.520;10.528;2022-12-07T04:39:34;100705.44;;;4.12
76381;BMP280;65202;52.520;10.528;2022-12-07T04:42:02;100718.38;;;4.08
76381;BMP280;65202;52.520;10.528;2022-12-07T04:44:30;100711.03;;;4.10
76381;BMP280;65202;52.520;10.528;2022-12-07T04:46:58;100712.66;;;4.09
76381;BMP280;65202;52.520;10.528;2022-12-07T04:49:25;100708.56;;;4.10
76381;BMP280;65202;52.520;10.528;2022-12-07T04:51:52;100705.22;;;4.09
76381;BMP280;65202;52.520;10.528;2022-12-07T04:54:20;100703.50;;;4.08
76381;BMP280;65202;52.520;10.528;2022-12-07T04:56:47;100701.97;;;4.10
76381;BMP280;65202;52.520;10.528;2022-12-07T04:59:16;100701.78;;;4.07
76381;BMP280;65202;52.520;10.528;2022-12-07T05:01:44;100702.44;;;4.05
76381;BMP280;65202;52.520;10.528;2022-12-07T05:04:11;100707.56;;;4.08
76381;BMP280;65202;52.520;10.528;2022-12-07T05:06:39;100696.72;;;4.06
76381;BMP280;65202;52.520;10.528;2022-12-07T05:09:06;100703.53;;;3.97
76381;BMP280;65202;52.520;10.528;2022-12-07T05:11:34;100712.56;;;3.96
76381;BMP280;65202;52.520;10.528;2022-12-07T05:14:13;100707.59;;;3.96
76381;BMP280;65202;52.520;10.528;2022-12-07T05:16:48;100708.47;;;3.97
76381;BMP280;65202;52.520;10.528;2022-12-07T05:19:18;100711.50;;;3.93
76381;BMP280;65202;52.520;10.528;2022-12-07T05:21:46;100714.84;;;3.93
76381;BMP280;65202;52.520;10.528;2022-12-07T05:24:14;100711.38;;;3.91
76381;BMP280;65202;52.520;10.528;2022-12-07T05:26:43;100713.19;;;3.94
76381;BMP280;65202;52.520;10.528;2022-12-07T05:29:15;100710.63;;;3.92
76381;BMP280;65202;52.520;10.528;2022-12-07T05:31:43;100712.25;;;3.92
76381;BMP280;65202;52.520;10.528;2022-12-07T05:34:11;100710.63;;;3.92
76381;BMP280;65202;52.520;10.528;2022-12-07T05:36:39;100710.63;;;3.92
76381;BMP280;65202;52.520;10.528;2022-12-07T05:39:06;100702.91;;;3.88
76381;BMP280;65202;52.520;10.528;2022-12-07T05:41:34;100706.31;;;3.90
76381;BMP280;65202;52.520;10.528;2022-12-07T05:44:20;100698.03;;;3.89
76381;BMP280;65202;52.520;10.528;2022-12-07T05:46:47;100698.59;;;3.85
76381;BMP280;65202;52.520;10.528;2022-12-07T05:49:14;100702.66;;;3.85
76381;BMP280;65202;52.520;10.528;2022-12-07T05:51:42;100700.75;;;3.81
76381;BMP280;65202;52.520;10.528;2022-12-07T05:54:09;100701.06;;;3.85
76381;BMP280;65202;52.520;10.528;2022-12-07T05:56:36;100701.91;;;3.86
76381;BMP280;65202;52.520;10.528;2022-12-07T05:59:04;100705.69;;;3.81
76381;BMP280;65202;52.520;10.528;2022-12-07T06:01:54;100705.50;;;3.78
76381;BMP280;65202;52.520;10.528;2022-12-07T06:04:25;100712.59;;;3.73
76381;BMP280;65202;52.520;10.528;2022-12-07T06:06:53;100710.88;;;3.72
76381;BMP280;65202;52.520;10.528;2022-12-07T06:09:22;100705.06;;;3.72
76381;BMP280;65202;52.520;10.528;2022-12-07T06:11:50;100703.53;;;3.74
76381;BMP280;65202;52.520;10.528;2022-12-07T06:14:36;100697.09;;;3.76
76381;BMP280;65202;52.520;10.528;2022-12-07T06:17:05;100703.66;;;3.75
76381;BMP280;65202;52.520;10.528;2022-12-07T06:19:33;100701.59;;;3.81
76381;BMP280;65202;52.520;10.528;2022-12-07T06:22:01;100705.50;;;3.78
76381;BMP280;65202;52.520;10.528;2022-12-07T06:24:28;100713.44;;;3.74
76381;BMP280;65202;52.520;10.528;2022-12-07T06:26:55;100713.44;;;3.74
76381;BMP280;65202;52.520;10.528;2022-12-07T06:29:23;100707.97;;;3.78
76381;BMP280;65202;52.520;10.528;2022-12-07T06:31:50;100707.19;;;3.79
76381;BMP280;65202;52.520;10.528;2022-12-07T06:34:19;100709.66;;;3.79
76381;BMP280;65202;52.520;10.528;2022-12-07T06:36:50;100709.38;;;3.74
76381;BMP280;65202;52.520;10.528;2022-12-07T06:39:27;100714.41;;;3.76
76381;BMP280;65202;52.520;10.528;2022-12-07T06:41:55;100714.41;;;3.76
76381;BMP280;65202;52.520;10.528;2022-12-07T06:44:24;100713.56;;;3.75
76381;BMP280;65202;52.520;10.528;2022-12-07T06:46:52;100716.69;;;3.84
76381;BMP280;65202;52.520;10.528;2022-12-07T06:49:39;100716.44;;;3.81
76381;BMP280;65202;52.520;10.528;2022-12-07T06:52:06;100716.34;;;3.80
76381;BMP280;65202;52.520;10.528;2022-12-07T06:54:33;100717.75;;;3.76
76381;BMP280;65202;52.520;10.528;2022-12-07T06:57:01;100712.78;;;3.76
76381;BMP280;65202;52.520;10.528;2022-12-07T06:59:28;100713.13;;;3.81
76381;BMP280;65202;52.520;10.528;2022-12-07T07:01:55;100720.44;;;3.79
76381;BMP280;65202;52.520;10.528;2022-12-07T07:04:22;100724.53;;;3.79
76381;BMP280;65202;52.520;10.528;2022-12-07T07:06:50;100717.97;;;3.79
76381;BMP280;65202;52.520;10.528;2022-12-07T07:09:25;100722.28;;;3.82
76381;BMP280;65202;52.520;10.528;2022-12-07T07:11:53;100713.66;;;3.77
76381;BMP280;65202;52.520;10.528;2022-12-07T07:14:20;100718.63;;;3.77
76381;BMP280;65202;52.520;10.528;2022-12-07T07:16:48;100722.94;;;3.79
76381;BMP280;65202;52.520;10.528;2022-12-07T07:19:15;100728.19;;;3.72
76381;BMP280;65202;52.520;10.528;2022-12-07T07:21:42;100723.34;;;3.74
76381;BMP280;65202;52.520;10.528;2022-12-07T07:24:09;100728.75;;;3.69
76381;BMP280;65202;52.520;10.528;2022-12-07T07:26:36;100729.38;;;3.77
76381;BMP280;65202;52.520;10.528;2022-12-07T07:29:04;100727.34;;;3.72
76381;BMP280;65202;52.520;10.528;2022-12-07T07:31:31;100726.81;;;3.76
76381;BMP280;65202;52.520;10.528;2022-12-07T07:33:58;100727.00;;;3.79
76381;BMP280;65202;52.520;10.528;2022-12-07T07:36:25;100730.66;;;3.72
76381;BMP280;65202;52.520;10.528;2022-12-07T07:38:52;100735.22;;;3.78
76381;BMP280;65202;52.520;10.528;2022-12-07T07:41:20;100738.84;;;3.72
76381;BMP280;65202;52.520;10.528;2022-12-07T07:43:47;100735.06;;;3.76
76381;BMP280;65202;52.520;10.528;2022-12-07T07:46:14;100740.81;;;3.75
76381;BMP280;65202;52.520;10.528;2022-12-07T07:48:41;100737.69;;;3.78
76381;BMP280;65202;52.520;10.528;2022-12-07T07:51:08;100742.75;;;3.68
76381;BMP280;65202;52.520;10.528;2022-12-07T07:53:35;100744.47;;;3.80
76381;BMP280;65202;52.520;10.528;2022-12-07T07:56:03;100743.78;;;3.72
76381;BMP280;65202;52.520;10.528;2022-12-07T07:58:30;100742.41;;;3.75
76381;BMP280;65202;52.520;10.528;2022-12-07T08:01:03;100744.34;;;3.79
76381;BMP280;65202;52.520;10.528;2022-12-07T08:03:31;100741.00;;;3.78
76381;BMP280;65202;52.520;10.528;2022-12-07T08:05:58;100740.25;;;3.79
76381;BMP280;65202;52.520;10.528;2022-12-07T08:08:26;100744.66;;;3.83
76381;BMP280;65202;52.520;10.528;2022-12-07T08:10:53;100732.63;;;3.88
76381;BMP280;65202;52.520;10.528;2022-12-07T08:13:20;100743.81;;;3.83
76381;BMP280;65202;52.520;10.528;2022-12-07T08:15:55;100738.31;;;3.87
76381;BMP280;65202;52.520;10.528;2022-12-07T08:18:22;100743.91;;;3.84
76381;BMP280;65202;52.520;10.528;2022-12-07T08:20:49;100750.91;;;3.90
76381;BMP280;65202;52.520;10.528;2022-12-07T08:23:16;100744.56;;;3.93
76381;BMP280;65202;52.520;10.528;2022-12-07T08:25:43;100749.19;;;3.89
76381;BMP280;65202;52.520;10.528;2022-12-07T08:28:11;100754.13;;;3.89
76381;BMP280;65202;52.520;10.528;2022-12-07T08:30:38;100754.03;;;3.87
76381;BMP280;65202;52.520;10.528;2022-12-07T08:33:05;100736.03;;;3.90
76381;BMP280;65202;52.520;10.528;2022-12-07T08:35:33;100745.00;;;3.88
76381;BMP280;65202;52.520;10.528;2022-12-07T08:38:01;100747.03;;;3.93
76381;BMP280;65202;52.520;10.528;2022-12-07T08:40:29;100741.22;;;3.93
76381;BMP280;65202;52.520;10.528;2022-12-07T08:42:57;100750.16;;;3.91
76381;BMP280;65202;52.520;10.528;2022-12-07T08:45:24;100750.34;;;3.94
76381;BMP280;65202;52.520;10.528;2022-12-07T08:47:58;100756.19;;;3.94
76381;BMP280;65202;52.520;10.528;2022-12-07T08:50:31;100749.59;;;4.06
76381;BMP280;65202;52.520;10.528;2022-12-07T08:53:00;100748.50;;;4.03
76381;BMP280;65202;52.520;10.528;2022-12-07T08:55:29;100757.13;;;4.08
76381;BMP280;65202;52.520;10.528;2022-12-07T08:57:58;100754.13;;;4.12
76381;BMP280;65202;52.520;10.528;2022-12-07T09:00:26;100755.06;;;4.14
76381;BMP280;65202;52.520;10.528;2022-12-07T09:02:54;100759.19;;;4.13
76381;BMP280;65202;52.520;10.528;2022-12-07T09:05:21;100761.22;;;4.19
76381;BMP280;65202;52.520;10.528;2022-12-07T09:07:52;100756.72;;;4.13
76381;BMP280;65202;52.520;10.528;2022-12-07T09:10:24;100757.56;;;4.14
76381;BMP280;65202;52.520;10.528;2022-12-07T09:12:51;100759.09;;;4.12
76381;BMP280;65202;52.520;10.528;2022-12-07T09:15:18;100756.19;;;4.06
76381;BMP280;65202;52.520;10.528;2022-12-07T09:17:45;100761.44;;;4.10
76381;BMP280;65202;52.520;10.528;2022-12-07T09:20:13;100769.84;;;4.01
76381;BMP280;65202;52.520;10.528;2022-12-07T09:22:40;100768.97;;;4.00
76381;BMP280;65202;52.520;10.528;2022-12-07T09:25:07;100767.94;;;3.97
76381;BMP280;65202;52.520;10.528;2022-12-07T09:27:34;100769.22;;;3.92
76381;BMP280;65202;52.520;10.528;2022-12-07T09:30:03;100765.44;;;3.97
76381;BMP280;65202;52.520;10.528;2022-12-07T09:32:32;100761.78;;;3.92
76381;BMP280;65202;52.520;10.528;2022-12-07T09:34:59;100754.34;;;4.03
76381;BMP280;65202;52.520;10.528;2022-12-07T09:37:26;100746.16;;;4.04
76381;BMP280;65202;52.520;10.528;2022-12-07T09:39:53;100748.09;;;4.08
76381;BMP280;65202;52.520;10.528;2022-12-07T09:42:38;100751.78;;;4.02
76381;BMP280;65202;52.520;10.528;2022-12-07T09:45:14;100753.81;;;4.07
76381;BMP280;65202;52.520;10.528;2022-12-07T09:47:50;100753.69;;;4.06
76381;BMP280;65202;52.520;10.528;2022-12-07T09:50:24;100751.31;;;4.07
76381;BMP280;65202;52.520;10.528;2022-12-07T09:53:06;100757.34;;;4.11
76381;BMP280;65202;52.520;10.528;2022-12-07T09:55:38;100755.72;;;4.11
76381;BMP280;65202;52.520;10.528;2022-12-07T09:58:17;100754.53;;;4.06
76381;BMP280;65202;52.520;10.528;2022-12-07T10:00:48;100754.88;;;4.11
76381;BMP280;65202;52.520;10.528;2022-12-07T10:03:19;100755.63;;;4.10
76381;BMP280;65202;52.520;10.528;2022-12-07T10:05:49;100754.00;;;4.10
76381;BMP280;65202;52.520;10.528;2022-12-07T10:08:17;100746.16;;;4.16
76381;BMP280;65202;52.520;10.528;2022-12-07T10:10:48;100755.19;;;4.15
76381;BMP280;65202;52.520;10.528;2022-12-07T10:13:21;100753.03;;;4.20
76381;BMP280;65202;52.520;10.528;2022-12-07T10:16:00;100753.75;;;4.30
76381;BMP280;65202;52.520;10.528;2022-12-07T10:21:18;100755.88;;;4.48
76381;BMP280;65202;52.520;10.528;2022-12-07T10:26:34;100747.78;;;4.51
76381;BMP280;65202;52.520;10.528;2022-12-07T10:29:20;100745.19;;;4.49
76381;BMP280;65202;52.520;10.528;2022-12-07T10:32:23;100741.75;;;4.47
76381;BMP280;65202;52.520;10.528;2022-12-07T10:35:29;100735.47;;;4.52
76381;BMP280;65202;52.520;10.528;2022-12-07T10:37:59;100737.00;;;4.50
76381;BMP280;65202;52.520;10.528;2022-12-07T10:48:46;100744.59;;;4.40
76381;BMP280;65202;52.520;10.528;2022-12-07T10:51:47;100740.38;;;4.39
76381;BMP280;65202;52.520;10.528;2022-12-07T10:54:34;100738.31;;;4.45
76381;BMP280;65202;52.520;10.528;2022-12-07T11:00:03;100730.31;;;4.49
76381;BMP280;65202;52.520;10.528;2022-12-07T11:02:56;100731.72;;;4.46
76381;BMP280;65202;52.520;10.528;2022-12-07T11:11:35;100731.06;;;4.48
76381;BMP280;65202;52.520;10.528;2022-12-07T11:26:02;100714.69;;;4.50
76381;BMP280;65202;52.520;10.528;2022-12-07T11:38:50;100707.03;;;4.47
76381;BMP280;65202;52.520;10.528;2022-12-07T11:41:35;100699.59;;;4.47
76381;BMP280;65202;52.520;10.528;2022-12-07T11:44:06;100698.75;;;4.47
76381;BMP280;65202;52.520;10.528;2022-12-07T11:46:59;100700.94;;;4.55
76381;BMP280;65202;52.520;10.528;2022-12-07T11:49:40;100702.06;;;4.47
76381;BMP280;65202;52.520;10.528;2022-12-07T11:52:22;100697.53;;;4.53
76381;BMP280;65202;52.520;10.528;2022-12-07T11:54:58;100694.09;;;4.51
76381;BMP280;65202;52.520;10.528;2022-12-07T11:57:37;100699.03;;;4.51
76381;BMP280;65202;52.520;10.528;2022-12-07T12:00:15;100698.44;;;4.42
76381;BMP280;65202;52.520;10.528;2022-12-07T12:02:50;100700.75;;;4.52
76381;BMP280;65202;52.520;10.528;2022-12-07T12:05:25;100694.50;;;4.57
76381;BMP280;65202;52.520;10.528;2022-12-07T12:08:15;100682.28;;;4.60
76381;BMP280;65202;52.520;10.528;2022-12-07T12:15:00;100668.06;;;4.82
76381;BMP280;65202;52.520;10.528;2022-12-07T12:20:52;100665.84;;;4.87
76381;BMP280;65202;52.520;10.528;2022-12-07T12:23:43;100667.69;;;4.89
76381;BMP280;65202;52.520;10.528;2022-12-07T12:26:18;100673.34;;;4.99
76381;BMP280;65202;52.520;10.528;2022-12-07T12:31:32;100671.63;;;4.98
76381;BMP280;65202;52.520;10.528;2022-12-07T12:34:31;100666.41;;;5.07
76381;BMP280;65202;52.520;10.528;2022-12-07T12:36:59;100659.22;;;5.11
76381;BMP280;65202;52.520;10.528;2022-12-07T12:39:26;100641.97;;;5.26
76381;BMP280;65202;52.520;10.528;2022-12-07T12:41:56;100651.34;;;5.30
76381;BMP280;65202;52.520;10.528;2022-12-07T12:47:00;100634.97;;;5.20
76381;BMP280;65202;52.520;10.528;2022-12-07T12:54:36;100634.72;;;5.03
76381;BMP280;65202;52.520;10.528;2022-12-07T12:57:18;100646.59;;;4.83
76381;BMP280;65202;52.520;10.528;2022-12-07T13:02:38;100637.06;;;4.89
76381;BMP280;65202;52.520;10.528;2022-12-07T13:05:18;100630.19;;;4.97
76381;BMP280;65202;52.520;10.528;2022-12-07T13:07:57;100639.63;;;4.90
76381;BMP280;65202;52.520;10.528;2022-12-07T13:11:27;100637.38;;;4.93
76381;BMP280;65202;52.520;10.528;2022-12-07T13:20:07;100629.44;;;4.86
76381;BMP280;65202;52.520;10.528;2022-12-07T13:22:43;100633.16;;;4.92
76381;BMP280;65202;52.520;10.528;2022-12-07T13:25:30;100630.47;;;4.89
76381;BMP280;65202;52.520;10.528;2022-12-07T13:28:14;100640.97;;;4.85
76381;BMP280;65202;52.520;10.528;2022-12-07T13:31:04;100641.53;;;4.81
76381;BMP280;65202;52.520;10.528;2022-12-07T13:33:54;100646.09;;;4.75
76381;BMP280;65202;52.520;10.528;2022-12-07T13:36:22;100638.66;;;4.75
76381;BMP280;65202;52.520;10.528;2022-12-07T13:39:20;100643.03;;;4.66
76381;BMP280;65202;52.520;10.528;2022-12-07T13:41:57;100641.41;;;4.67
76381;BMP280;65202;52.520;10.528;2022-12-07T13:44:27;100639.03;;;4.68
76381;BMP280;65202;52.520;10.528;2022-12-07T13:49:48;100641.50;;;4.68
76381;BMP280;65202;52.520;10.528;2022-12-07T13:52:25;100629.88;;;4.67
76381;BMP280;65202;52.520;10.528;2022-12-07T13:54:59;100644.66;;;4.66
76381;BMP280;65202;52.520;10.528;2022-12-07T13:57:30;100632.16;;;4.64
76381;BMP280;65202;52.520;10.528;2022-12-07T14:00:06;100627.19;;;4.64
76381;BMP280;65202;52.520;10.528;2022-12-07T14:05:31;100653.09;;;4.56
76381;BMP280;65202;52.520;10.528;2022-12-07T14:10:37;100644.94;;;4.33
76381;BMP280;65202;52.520;10.528;2022-12-07T14:15:58;100671.47;;;3.18
76381;BMP280;65202;52.520;10.528;2022-12-07T14:18:39;100668.06;;;3.39
76381;BMP280;65202;52.520;10.528;2022-12-07T14:23:38;100650.31;;;3.33
76381;BMP280;65202;52.520;10.528;2022-12-07T14:26:15;100660.31;;;3.35
76381;BMP280;65202;52.520;10.528;2022-12-07T14:28:46;100662.03;;;3.24
76381;BMP280;65202;52.520;10.528;2022-12-07T14:31:16;100670.09;;;3.45
76381;BMP280;65202;52.520;10.528;2022-12-07T14:33:59;100671.00;;;2.90
76381;BMP280;65202;52.520;10.528;2022-12-07T14:36:26;100668.03;;;3.05
76381;BMP280;65202;52.520;10.528;2022-12-07T14:38:53;100663.22;;;3.07
76381;BMP280;65202;52.520;10.528;2022-12-07T14:41:23;100672.03;;;3.26
76381;BMP280;65202;52.520;10.528;2022-12-07T14:44:11;100667.19;;;3.27
76381;BMP280;65202;52.520;10.528;2022-12-07T14:46:59;100654.06;;;3.28
76381;BMP280;65202;52.520;10.528;2022-12-07T14:49:46;100643.31;;;3.39
76381;BMP280;65202;52.520;10.528;2022-12-07T14:52:20;100646.97;;;3.44
76381;BMP280;65202;52.520;10.528;2022-12-07T14:55:30;100645.25;;;3.43
76381;BMP280;65202;52.520;10.528;2022-12-07T14:57:58;100643.72;;;3.34
76381;BMP280;65202;52.520;10.528;2022-12-07T15:00:27;100646.53;;;3.50
76381;BMP280;65202;52.520;10.528;2022-12-07T15:02:56;100652.88;;;3.46
76381;BMP280;65202;52.520;10.528;2022-12-07T15:05:23;100657.38;;;3.40
76381;BMP280;65202;52.520;10.528;2022-12-07T15:07:51;100652.00;;;3.57
76381;BMP280;65202;52.520;10.528;2022-12-07T15:10:22;100653.84;;;3.48
76381;BMP280;65202;52.520;10.528;2022-12-07T15:12:57;100656.34;;;3.37
76381;BMP280;65202;52.520;10.528;2022-12-07T15:15:45;100660.31;;;3.35
76381;BMP280;65202;52.520;10.528;2022-12-07T15:18:14;100654.41;;;3.44
76381;BMP280;65202;52.520;10.528;2022-12-07T15:20:42;100656.88;;;3.44
76381;BMP280;65202;52.520;10.528;2022-12-07T15:23:10;100658.38;;;3.42
76381;BMP280;65202;52.520;10.528;2022-12-07T15:25:46;100663.22;;;3.41
76381;BMP280;65202;52.520;10.528;2022-12-07T15:28:15;100662.13;;;3.03
76381;BMP280;65202;52.520;10.528;2022-12-07T15:30:43;100665.25;;;3.35
76381;BMP280;65202;52.520;10.528;2022-12-07T15:33:12;100670.09;;;3.33
76381;BMP280;65202;52.520;10.528;2022-12-07T15:35:41;100666.88;;;3.34
76381;BMP280;65202;52.520;10.528;2022-12-07T15:38:10;100667.19;;;3.27
76381;BMP280;65202;52.520;10.528;2022-12-07T15:40:38;100676.16;;;2.81
76381;BMP280;65202;52.520;10.528;2022-12-07T15:43:05;100683.91;;;2.86
76381;BMP280;65202;52.520;10.528;2022-12-07T15:45:55;100680.06;;;3.01
76381;BMP280;65202;52.520;10.528;2022-12-07T15:48:22;100673.59;;;2.91
76381;BMP280;65202;52.520;10.528;2022-12-07T15:51:05;100666.16;;;2.80
76381;BMP280;65202;52.520;10.528;2022-12-07T15:53:34;100674.84;;;2.75
76381;BMP280;65202;52.520;10.528;2022-12-07T15:56:07;100668.72;;;2.70
76381;BMP280;65202;52.520;10.528;2022-12-07T15:58:34;100669.28;;;2.89
76381;BMP280;65202;52.520;10.528;2022-12-07T16:01:10;100662.84;;;2.91
76381;BMP280;65202;52.520;10.528;2022-12-07T16:03:42;100657.53;;;2.75
76381;BMP280;65202;52.520;10.528;2022-12-07T16:06:10;100653.31;;;2.62
76381;BMP280;65202;52.520;10.528;2022-12-07T16:08:42;100658.06;;;2.71
76381;BMP280;65202;52.520;10.528;2022-12-07T16:11:10;100656.44;;;2.71
76381;BMP280;65202;52.520;10.528;2022-12-07T16:13:38;100655.06;;;2.75
76381;BMP280;65202;52.520;10.528;2022-12-07T16:16:09;100651.06;;;2.54